Ellen Mcallister — WDG3673 — position and weather

sailwx.info

Track history (hours):
 
Tides and Currents Weather Stations Pressure Air Temp Water Temp Dewpoint Dewpoint Depression Visibility Wind Speed Wind Dir Waves Ship Positions

Ellen Mcallister

Owner: McAllister Towing & Transportation Inc., Staten Island, NY. More information available from US FCC via Universal Licensing System and Coast Guard Vessel Documentation Center.

Last reported at 2016-Jun-29 16:33 UTC. Time now 2016-Jun-29 18:18 UTC.
Position N 40°39' W 074°03'.

Length 35 m; draft 5 m.

Type: Tug. MMSI: 366836590.

Date/timePositionNaut miles runAvg speedWind from/ knotsBaromVisibWave heightAir tempDewpointWater temp
2016-Jun-29 16:33N 40°39' W 074°03'1 0.8
2016-Jun-29 15:33N 40°39' W 074°04'2 0.3
2016-Jun-29 08:34N 40°38' W 074°03'1 0.1
2016-Jun-28 20:06N 40°39' W 074°04'0 0.0
2016-Jun-28 10:18N 40°39' W 074°04'0 0.5
2016-Jun-28 09:33N 40°39' W 074°04'1 0.1
2016-Jun-27 20:13N 40°40' W 074°04'0 0.0
2016-Jun-27 14:16N 40°40' W 074°04'2 2.7
2016-Jun-27 13:31N 40°38' W 074°03'3 0.8
2016-Jun-27 10:12N 40°40' W 074°05'1 0.8
2016-Jun-27 09:32N 40°40' W 074°04'3 0.4
2016-Jun-27 02:10N 40°37' W 074°03'0 0.0
2016-Jun-26 14:33N 40°38' W 074°03'2 0.4
2016-Jun-26 09:24N 40°39' W 074°05'1 1.0
2016-Jun-26 08:16N 40°40' W 074°05'0 0.0
2016-Jun-26 07:31N 40°40' W 074°05'0 0.0
2016-Jun-26 03:21N 40°40' W 074°05'0 0.0
2016-Jun-26 02:30N 40°40' W 074°05'0 0.0
2016-Jun-25 19:11N 40°40' W 074°05'0 0.7
2016-Jun-25 18:32N 40°40' W 074°05'3 1.9
2016-Jun-25 17:05N 40°38' W 074°03'3 1.1
2016-Jun-25 14:26N 40°40' W 074°05'0 0.0
2016-Jun-25 07:09N 40°40' W 074°05'1 1.0
2016-Jun-25 06:13N 40°41' W 074°04'1 1.8
2016-Jun-25 05:30N 40°40' W 074°03'1 1.2
2016-Jun-25 04:32N 40°39' W 074°03'1 0.4
2016-Jun-25 01:20N 40°40' W 074°04'0 0.0
2016-Jun-25 00:28N 40°40' W 074°04'0 0.0
2016-Jun-24 23:33N 40°40' W 074°04'0 0.0
2016-Jun-24 22:33N 40°40' W 074°04'0 0.0
2016-Jun-24 21:33N 40°40' W 074°04'0 0.0
2016-Jun-24 20:19N 40°40' W 074°04'1 0.6
2016-Jun-24 18:32N 40°39' W 074°04'2 0.3
2016-Jun-24 13:06N 40°37' W 074°04'1 0.0
2016-Jun-22 20:31N 40°39' W 074°04'0 0.4
2016-Jun-22 19:33N 40°39' W 074°05'1 0.1
2016-Jun-22 11:17N 40°40' W 074°04'1 1.3
2016-Jun-22 10:33N 40°39' W 074°03'1 1.1
2016-Jun-22 09:16N 40°40' W 074°04'0 0.0
2016-Jun-22 06:26N 40°40' W 074°04'0 0.0
2016-Jun-22 04:28N 40°40' W 074°04'0 0.0
2016-Jun-22 02:19N 40°40' W 074°04'1 0.6
2016-Jun-22 01:27N 40°40' W 074°05'2 2.7
2016-Jun-22 00:33N 40°38' W 074°03'2 0.3
2016-Jun-21 19:31N 40°40' W 074°04'1 0.1
2016-Jun-21 09:20N 40°39' W 074°05'1 0.4
2016-Jun-21 06:33N 40°40' W 074°04'0 0.0
2016-Jun-20 23:32N 40°40' W 074°04'0 0.0
2016-Jun-20 22:33N 40°40' W 074°04'0 0.1
2016-Jun-20 21:32N 40°40' W 074°04'5 5.2
2016-Jun-20 20:33N 40°42' W 073°58'0 0.1
2016-Jun-20 19:33N 40°42' W 073°58'2 1.7
2016-Jun-20 18:33N 40°41' W 074°00'0 0.1
2016-Jun-20 17:20N 40°42' W 074°00'0 0.0
2016-Jun-20 16:33N 40°42' W 074°00'0 0.0
2016-Jun-20 15:33N 40°42' W 074°00'1 1.5
2016-Jun-20 14:34N 40°42' W 073°59'5 4.7
2016-Jun-20 13:33N 40°39' W 074°03'2 1.2
2016-Jun-20 12:18N 40°40' W 074°04'3 0.7
2016-Jun-20 08:33N 40°38' W 074°03'2 0.7
2016-Jun-20 05:32N 40°39' W 074°05'1 0.1
2016-Jun-19 21:17N 40°39' W 074°04'  
Track history (hours):
 
Tides and Currents Weather Stations Pressure Air Temp Water Temp Dewpoint Dewpoint Depression Visibility Wind Speed Wind Dir Waves Ship Positions

Ellen Mcallister

Owner: McAllister Towing & Transportation Inc., Staten Island, NY. More information available from US FCC via Universal Licensing System and Coast Guard Vessel Documentation Center.

Last reported at 2016-Jun-29 16:33 UTC. Time now 2016-Jun-29 18:18 UTC.
Position N 40°39' W 074°03'.

Length 35 m; draft 5 m.

Type: Tug. MMSI: 366836590.

Date/timePositionNaut miles runAvg speedWind from/ knotsBaromVisibWave heightAir tempDewpointWater temp
2016-Jun-29 16:33N 40°39' W 074°03'1 0.8
2016-Jun-29 15:33N 40°39' W 074°04'2 0.3
2016-Jun-29 08:34N 40°38' W 074°03'1 0.1
2016-Jun-28 20:06N 40°39' W 074°04'0 0.0
2016-Jun-28 10:18N 40°39' W 074°04'0 0.5
2016-Jun-28 09:33N 40°39' W 074°04'1 0.1
2016-Jun-27 20:13N 40°40' W 074°04'0 0.0
2016-Jun-27 14:16N 40°40' W 074°04'2 2.7
2016-Jun-27 13:31N 40°38' W 074°03'3 0.8
2016-Jun-27 10:12N 40°40' W 074°05'1 0.8
2016-Jun-27 09:32N 40°40' W 074°04'3 0.4
2016-Jun-27 02:10N 40°37' W 074°03'0 0.0
2016-Jun-26 14:33N 40°38' W 074°03'2 0.4
2016-Jun-26 09:24N 40°39' W 074°05'1 1.0
2016-Jun-26 08:16N 40°40' W 074°05'0 0.0
2016-Jun-26 07:31N 40°40' W 074°05'0 0.0
2016-Jun-26 03:21N 40°40' W 074°05'0 0.0
2016-Jun-26 02:30N 40°40' W 074°05'0 0.0
2016-Jun-25 19:11N 40°40' W 074°05'0 0.7
2016-Jun-25 18:32N 40°40' W 074°05'3 1.9
2016-Jun-25 17:05N 40°38' W 074°03'3 1.1
2016-Jun-25 14:26N 40°40' W 074°05'0 0.0
2016-Jun-25 07:09N 40°40' W 074°05'1 1.0
2016-Jun-25 06:13N 40°41' W 074°04'1 1.8
2016-Jun-25 05:30N 40°40' W 074°03'1 1.2
2016-Jun-25 04:32N 40°39' W 074°03'1 0.4
2016-Jun-25 01:20N 40°40' W 074°04'0 0.0
2016-Jun-25 00:28N 40°40' W 074°04'0 0.0
2016-Jun-24 23:33N 40°40' W 074°04'0 0.0
2016-Jun-24 22:33N 40°40' W 074°04'0 0.0
2016-Jun-24 21:33N 40°40' W 074°04'0 0.0
2016-Jun-24 20:19N 40°40' W 074°04'1 0.6
2016-Jun-24 18:32N 40°39' W 074°04'2 0.3
2016-Jun-24 13:06N 40°37' W 074°04'1 0.0
2016-Jun-22 20:31N 40°39' W 074°04'0 0.4
2016-Jun-22 19:33N 40°39' W 074°05'1 0.1
2016-Jun-22 11:17N 40°40' W 074°04'1 1.3
2016-Jun-22 10:33N 40°39' W 074°03'1 1.1
2016-Jun-22 09:16N 40°40' W 074°04'0 0.0
2016-Jun-22 06:26N 40°40' W 074°04'0 0.0
2016-Jun-22 04:28N 40°40' W 074°04'0 0.0
2016-Jun-22 02:19N 40°40' W 074°04'1 0.6
2016-Jun-22 01:27N 40°40' W 074°05'2 2.7
2016-Jun-22 00:33N 40°38' W 074°03'2 0.3
2016-Jun-21 19:31N 40°40' W 074°04'1 0.1
2016-Jun-21 09:20N 40°39' W 074°05'1 0.4
2016-Jun-21 06:33N 40°40' W 074°04'0 0.0
2016-Jun-20 23:32N 40°40' W 074°04'0 0.0
2016-Jun-20 22:33N 40°40' W 074°04'0 0.1
2016-Jun-20 21:32N 40°40' W 074°04'5 5.2
2016-Jun-20 20:33N 40°42' W 073°58'0 0.1
2016-Jun-20 19:33N 40°42' W 073°58'2 1.7
2016-Jun-20 18:33N 40°41' W 074°00'0 0.1
2016-Jun-20 17:20N 40°42' W 074°00'0 0.0
2016-Jun-20 16:33N 40°42' W 074°00'0 0.0
2016-Jun-20 15:33N 40°42' W 074°00'1 1.5
2016-Jun-20 14:34N 40°42' W 073°59'5 4.7
2016-Jun-20 13:33N 40°39' W 074°03'2 1.2
2016-Jun-20 12:18N 40°40' W 074°04'3 0.7
2016-Jun-20 08:33N 40°38' W 074°03'2 0.7
2016-Jun-20 05:32N 40°39' W 074°05'1 0.1
2016-Jun-19 21:17N 40°39' W 074°04'  

Dump ship's entire track history